createdAt,value
2023-04-28T00:02:07.670Z,100875.34
2023-04-28T00:04:35.269Z,100874.44
2023-04-28T00:07:03.456Z,100877.09
2023-04-28T00:09:31.005Z,100867.47
2023-04-28T00:11:58.654Z,100864.84
2023-04-28T00:14:26.475Z,100863.94
2023-04-28T00:16:57.043Z,100859.56
2023-04-28T00:19:24.824Z,100859.59
2023-04-28T00:21:52.211Z,100855.22
2023-04-28T00:24:19.660Z,100858.75
2023-04-28T00:26:47.041Z,100856.06
2023-04-28T00:29:14.596Z,100860.50
2023-04-28T00:31:42.048Z,100850.84
2023-04-28T00:34:14.383Z,100847.31
2023-04-28T00:36:42.078Z,100837.72
2023-04-28T00:39:10.239Z,100844.69
2023-04-28T00:41:38.242Z,100848.16
2023-04-28T00:44:05.872Z,100851.69
2023-04-28T00:46:34.628Z,100851.66
2023-04-28T00:49:04.114Z,100846.41
2023-04-28T00:51:33.931Z,100853.44
2023-04-28T00:54:02.017Z,100847.31
2023-04-28T00:56:31.368Z,100849.09
2023-04-28T00:58:59.610Z,100847.31
2023-04-28T01:01:27.241Z,100841.16
2023-04-28T01:03:54.866Z,100834.16
2023-04-28T01:06:23.895Z,100842.91
2023-04-28T01:08:54.252Z,100846.41
2023-04-28T01:11:21.851Z,100844.66
2023-04-28T01:14:07.809Z,100840.25
2023-04-28T01:16:39.438Z,100835.94
2023-04-28T01:19:20.901Z,100836.78
2023-04-28T01:21:49.540Z,100839.41
2023-04-28T01:24:22.058Z,100837.59
2023-04-28T01:26:50.739Z,100840.28
2023-04-28T01:29:18.204Z,100840.31
2023-04-28T01:31:45.866Z,100831.56
2023-04-28T01:34:13.848Z,100842.06
2023-04-28T01:36:42.948Z,100836.78
2023-04-28T01:39:11.385Z,100840.28
2023-04-28T01:41:41.191Z,100842.94
2023-04-28T01:44:08.704Z,100845.50
2023-04-28T01:46:36.861Z,100846.41
2023-04-28T01:49:04.875Z,100843.78
2023-04-28T01:51:32.932Z,100836.78
2023-04-28T01:54:01.793Z,100841.19
2023-04-28T01:56:30.154Z,100840.34
2023-04-28T01:58:58.679Z,100842.97
2023-04-28T02:01:26.581Z,100843.78
2023-04-28T02:03:55.836Z,100847.31
2023-04-28T02:06:24.587Z,100855.19
2023-04-28T02:08:52.101Z,100856.94
2023-04-28T02:11:19.791Z,100846.44
2023-04-28T02:13:47.397Z,100848.19
2023-04-28T02:16:15.168Z,100853.44
2023-04-28T02:18:43.309Z,100849.91
2023-04-28T02:21:12.087Z,100843.81
2023-04-28T02:23:40.160Z,100849.03
2023-04-28T02:26:07.652Z,100856.06
2023-04-28T02:28:35.080Z,100860.44
2023-04-28T02:31:11.068Z,100859.56
2023-04-28T02:33:38.860Z,100851.69
2023-04-28T02:36:07.136Z,100842.84
2023-04-28T02:38:35.117Z,100849.03
2023-04-28T02:41:05.131Z,100849.03
2023-04-28T02:43:33.188Z,100841.97
2023-04-28T02:46:01.296Z,100844.59
2023-04-28T02:48:29.031Z,100853.41
2023-04-28T02:50:56.515Z,100849.94
2023-04-28T02:53:24.318Z,100848.13
2023-04-28T02:55:51.674Z,100849.94
2023-04-28T02:58:19.369Z,100848.19
2023-04-28T03:00:48.261Z,100844.66
2023-04-28T03:03:16.908Z,100845.50
2023-04-28T03:05:44.448Z,100845.53
2023-04-28T03:08:12.116Z,100843.72
2023-04-28T03:10:39.571Z,100847.16
2023-04-28T03:13:07.394Z,100846.31
2023-04-28T03:15:35.472Z,100841.00
2023-04-28T03:18:03.294Z,100839.31
2023-04-28T03:20:30.834Z,100835.88
2023-04-28T03:22:58.679Z,100842.06
2023-04-28T03:25:26.449Z,100839.38
2023-04-28T03:27:54.016Z,100835.88
2023-04-28T03:30:21.531Z,100842.88
2023-04-28T03:32:49.025Z,100845.53
2023-04-28T03:35:16.631Z,100842.88
2023-04-28T03:37:44.870Z,100840.31
2023-04-28T03:40:12.813Z,100839.41
2023-04-28T03:43:01.705Z,100839.41
2023-04-28T03:45:34.954Z,100843.78
2023-04-28T03:48:02.967Z,100839.41
2023-04-28T03:50:30.626Z,100844.69
2023-04-28T03:52:58.144Z,100842.91
2023-04-28T03:55:26.345Z,100843.81
2023-04-28T03:57:54.127Z,100841.97
2023-04-28T04:00:21.635Z,100843.75
2023-04-28T04:02:52.769Z,100845.53
2023-04-28T04:05:20.789Z,100844.69
2023-04-28T04:07:48.226Z,100846.44
2023-04-28T04:10:15.876Z,100844.66
2023-04-28T04:12:45.336Z,100848.16
2023-04-28T04:15:13.112Z,100849.88
2023-04-28T04:17:43.019Z,100851.69
2023-04-28T04:20:10.876Z,100851.66
2023-04-28T04:22:38.300Z,100859.56
2023-04-28T04:25:06.321Z,100850.78
2023-04-28T04:27:35.524Z,100849.94
2023-04-28T04:30:03.428Z,100848.22
2023-04-28T04:32:30.915Z,100857.81
2023-04-28T04:34:58.521Z,100849.06
2023-04-28T04:37:26.204Z,100854.31
2023-04-28T04:39:58.651Z,100849.94
2023-04-28T04:42:26.796Z,100845.56
2023-04-28T04:45:04.536Z,100856.06
2023-04-28T04:47:32.167Z,100851.69
2023-04-28T04:49:59.780Z,100848.19
2023-04-28T04:52:27.375Z,100849.03
2023-04-28T04:54:56.609Z,100839.38
2023-04-28T04:57:25.260Z,100848.19
2023-04-28T05:00:21.963Z,100848.16
2023-04-28T05:02:50.262Z,100848.19
2023-04-28T05:05:22.137Z,100849.13
2023-04-28T05:08:12.530Z,100860.50
2023-04-28T05:10:40.274Z,100863.16
2023-04-28T05:13:07.764Z,100860.50
2023-04-28T05:15:36.048Z,100868.38
2023-04-28T05:18:26.837Z,100877.97
2023-04-28T05:20:54.609Z,100873.59
2023-04-28T05:23:22.235Z,100880.59
2023-04-28T05:25:49.716Z,100875.25
2023-04-28T05:28:17.755Z,100872.63
2023-04-28T05:30:46.832Z,100873.50
2023-04-28T05:33:14.378Z,100881.38
2023-04-28T05:35:42.906Z,100882.25
2023-04-28T05:38:10.603Z,100881.38
2023-04-28T05:40:38.225Z,100887.50
2023-04-28T05:43:05.837Z,100889.19
2023-04-28T05:45:33.474Z,100896.22
2023-04-28T05:48:01.108Z,100897.97
2023-04-28T05:50:28.798Z,100895.34
2023-04-28T05:52:56.364Z,100892.72
2023-04-28T05:55:24.863Z,100897.09
2023-04-28T05:57:54.066Z,100895.34
2023-04-28T06:00:22.633Z,100902.34
2023-04-28T06:02:53.914Z,100904.97
2023-04-28T06:05:23.452Z,100900.53
2023-04-28T06:07:56.075Z,100904.03
2023-04-28T06:10:26.580Z,100903.13
2023-04-28T06:12:54.038Z,100910.13
2023-04-28T06:15:21.637Z,100911.84
2023-04-28T06:17:49.153Z,100922.41
2023-04-28T06:20:17.469Z,100925.00
2023-04-28T06:22:45.120Z,100923.25
2023-04-28T06:25:12.859Z,100926.72
2023-04-28T06:27:46.242Z,100925.88
2023-04-28T06:30:23.341Z,100935.50
2023-04-28T06:32:51.826Z,100940.75
2023-04-28T06:35:19.556Z,100937.22
2023-04-28T06:37:47.053Z,100936.31
2023-04-28T06:40:16.000Z,100941.53
2023-04-28T06:42:51.073Z,100949.38
2023-04-28T06:45:24.398Z,100949.34
2023-04-28T06:47:52.702Z,100946.75
2023-04-28T06:50:20.855Z,100943.22
2023-04-28T06:52:48.771Z,100942.34
2023-04-28T06:55:20.007Z,100950.25
2023-04-28T06:57:47.725Z,100937.91
2023-04-28T07:00:15.597Z,100939.56
2023-04-28T07:02:43.329Z,100945.69
2023-04-28T07:05:10.920Z,100940.41
2023-04-28T07:07:41.044Z,100949.06
2023-04-28T07:10:09.090Z,100950.75
2023-04-28T07:12:37.820Z,100953.22
2023-04-28T07:15:06.632Z,100952.28
2023-04-28T07:17:34.152Z,100949.50
2023-04-28T07:20:01.831Z,100947.78
2023-04-28T07:22:29.243Z,100954.78
2023-04-28T07:24:56.930Z,100961.78
2023-04-28T07:27:24.402Z,100961.75
2023-04-28T07:29:51.934Z,100959.94
2023-04-28T07:32:19.501Z,100960.75
2023-04-28T07:34:47.227Z,100955.47
2023-04-28T07:37:14.688Z,100953.72
2023-04-28T07:39:42.182Z,100959.81
2023-04-28T07:42:10.521Z,100963.25
2023-04-28T07:44:38.186Z,100963.28
2023-04-28T07:47:05.891Z,100958.81
2023-04-28T07:49:33.473Z,100960.63
2023-04-28T07:52:00.861Z,100969.38
2023-04-28T07:54:28.480Z,100973.69
2023-04-28T07:56:58.183Z,100968.38
2023-04-28T07:59:25.740Z,100971.91
2023-04-28T08:01:53.299Z,100980.69
2023-04-28T08:04:21.137Z,100985.09
2023-04-28T08:06:48.948Z,100991.25
2023-04-28T08:09:16.903Z,100994.72
2023-04-28T08:11:44.491Z,100994.72
2023-04-28T08:14:12.004Z,100997.22
2023-04-28T08:16:41.525Z,100997.97
2023-04-28T08:19:09.440Z,100989.69
2023-04-28T08:21:36.835Z,100993.09
2023-04-28T08:24:04.333Z,100993.78
2023-04-28T08:26:32.360Z,100983.25
2023-04-28T08:29:00.097Z,100982.16
2023-04-28T08:31:27.798Z,100993.00
2023-04-28T08:33:55.801Z,100995.56
2023-04-28T08:36:25.170Z,100991.28
2023-04-28T08:38:53.107Z,100998.41
2023-04-28T08:41:21.878Z,100999.94
2023-04-28T08:43:49.774Z,101001.75
2023-04-28T08:46:21.772Z,101004.47
2023-04-28T08:48:57.251Z,101017.41
2023-04-28T08:51:37.161Z,101021.13
2023-04-28T08:54:24.878Z,101014.38
2023-04-28T08:56:52.705Z,101013.97
2023-04-28T08:59:21.353Z,101030.44
2023-04-28T09:01:49.916Z,101021.09
2023-04-28T09:04:18.431Z,101030.28
2023-04-28T09:06:46.968Z,101029.56
2023-04-28T09:09:32.607Z,101033.97
2023-04-28T09:12:04.906Z,101043.47
2023-04-28T09:14:35.213Z,101047.88
2023-04-28T09:17:09.457Z,101046.22
2023-04-28T09:19:38.637Z,101045.44
2023-04-28T09:22:18.143Z,101052.56
2023-04-28T09:24:54.151Z,101064.94
2023-04-28T09:27:28.171Z,101059.69
2023-04-28T09:29:55.958Z,101062.34
2023-04-28T09:32:24.805Z,101061.44
2023-04-28T09:34:57.103Z,101050.75
2023-04-28T09:37:27.298Z,101054.38
2023-04-28T09:39:55.577Z,101055.22
2023-04-28T09:42:43.867Z,101057.69
2023-04-28T09:45:13.798Z,101054.03
2023-04-28T09:47:43.297Z,101061.94
2023-04-28T09:50:15.000Z,101053.78
2023-04-28T09:52:49.032Z,101066.09
2023-04-28T09:55:17.878Z,101054.53
2023-04-28T09:57:50.079Z,101050.78
2023-04-28T10:00:20.266Z,101047.06
2023-04-28T10:02:50.661Z,101042.66
2023-04-28T10:05:19.824Z,101049.66
2023-04-28T10:07:48.071Z,101051.28
2023-04-28T10:10:15.803Z,101054.66
2023-04-28T10:12:44.934Z,101055.38
2023-04-28T10:15:13.693Z,101056.06
2023-04-28T10:17:41.154Z,101068.47
2023-04-28T10:20:09.170Z,101067.56
2023-04-28T10:22:48.850Z,101070.19
2023-04-28T10:25:26.396Z,101076.34
2023-04-28T10:27:54.645Z,101073.59
2023-04-28T10:30:29.634Z,101077.84
2023-04-28T10:33:16.242Z,101086.75
2023-04-28T10:35:48.156Z,101076.22
2023-04-28T10:38:17.938Z,101075.47
2023-04-28T10:40:47.121Z,101076.50
2023-04-28T10:43:34.210Z,101078.25
2023-04-28T10:46:06.099Z,101072.03
2023-04-28T10:48:34.003Z,101066.75
2023-04-28T10:51:04.630Z,101076.31
2023-04-28T10:53:48.398Z,101076.88
2023-04-28T10:56:21.705Z,101076.50
2023-04-28T10:58:53.213Z,101079.59
2023-04-28T11:01:26.553Z,101079.13
2023-04-28T11:04:00.892Z,101076.66
2023-04-28T11:06:36.747Z,101077.03
2023-04-28T11:09:14.667Z,101081.25
2023-04-28T11:12:00.290Z,101080.03
2023-04-28T11:14:33.106Z,101081.09
2023-04-28T11:17:13.602Z,101076.81
2023-04-28T11:19:43.824Z,101069.03
2023-04-28T11:22:19.568Z,101065.75
2023-04-28T11:24:58.077Z,101070.91
2023-04-28T11:27:30.481Z,101070.84
2023-04-28T11:29:58.413Z,101068.25
2023-04-28T11:32:31.111Z,101074.50
2023-04-28T11:34:58.988Z,101067.47
2023-04-28T11:37:27.325Z,101062.44
2023-04-28T11:39:55.128Z,101061.66
2023-04-28T11:42:22.621Z,101058.19
2023-04-28T11:44:54.727Z,101055.78
2023-04-28T11:47:35.003Z,101053.34
2023-04-28T11:50:03.421Z,101059.78
2023-04-28T11:52:31.021Z,101062.56
2023-04-28T11:55:02.282Z,101063.97
2023-04-28T11:57:30.328Z,101063.19
2023-04-28T12:00:22.298Z,101055.53
2023-04-28T12:02:51.053Z,101055.13
2023-04-28T12:05:20.760Z,101060.75
2023-04-28T12:07:48.447Z,101061.06
2023-04-28T12:10:17.185Z,101062.25
2023-04-28T12:12:51.944Z,101058.06
2023-04-28T12:15:22.510Z,101053.47
2023-04-28T12:17:51.332Z,101054.38
2023-04-28T12:20:37.533Z,101058.19
2023-04-28T12:23:06.285Z,101066.53
2023-04-28T12:25:43.699Z,101061.97
2023-04-28T12:28:11.346Z,101065.31
2023-04-28T12:30:42.742Z,101060.09
2023-04-28T12:33:31.276Z,101065.81
2023-04-28T12:35:59.785Z,101060.25
2023-04-28T12:38:28.472Z,101070.16
2023-04-28T12:40:56.815Z,101068.19
2023-04-28T12:43:25.082Z,101075.69
2023-04-28T12:45:54.565Z,101074.53
2023-04-28T12:48:25.836Z,101068.78
2023-04-28T12:50:53.329Z,101074.97
2023-04-28T12:53:20.792Z,101063.13
2023-04-28T12:55:48.542Z,101065.06
2023-04-28T12:58:16.240Z,101059.75
2023-04-28T13:00:43.763Z,101065.94
2023-04-28T13:03:11.400Z,101071.94
2023-04-28T13:05:39.007Z,101073.94
2023-04-28T13:08:06.447Z,101072.25
2023-04-28T13:10:34.094Z,101065.06
2023-04-28T13:13:02.191Z,101066.72
2023-04-28T13:15:30.315Z,101067.53
2023-04-28T13:17:59.886Z,101061.06
2023-04-28T13:20:27.425Z,101061.13
2023-04-28T13:22:54.881Z,101063.78
2023-04-28T13:25:22.504Z,101075.41
2023-04-28T13:27:50.406Z,101065.63
2023-04-28T13:30:18.142Z,101065.41
2023-04-28T13:32:45.682Z,101060.78
2023-04-28T13:35:13.215Z,101059.88
2023-04-28T13:37:45.792Z,101066.97
2023-04-28T13:40:13.619Z,101070.38
2023-04-28T13:42:41.127Z,101066.53
2023-04-28T13:45:09.102Z,101062.72
2023-04-28T13:47:36.752Z,101071.75
2023-04-28T13:50:04.503Z,101066.38
2023-04-28T13:52:32.036Z,101072.50
2023-04-28T13:54:59.690Z,101075.09
2023-04-28T13:57:27.228Z,101069.66
2023-04-28T13:59:54.978Z,101064.25
2023-04-28T14:02:22.579Z,101067.66
2023-04-28T14:04:51.072Z,101062.31
2023-04-28T14:07:18.895Z,101067.78
2023-04-28T14:09:47.094Z,101059.94
2023-04-28T14:12:15.533Z,101074.22
2023-04-28T14:14:43.659Z,101073.25
2023-04-28T14:17:12.616Z,101070.63
2023-04-28T14:19:40.108Z,101075.41
2023-04-28T14:22:07.567Z,101066.72
2023-04-28T14:24:35.402Z,101055.31
2023-04-28T14:27:02.882Z,101051.91
2023-04-28T14:29:30.602Z,101051.09
2023-04-28T14:31:57.999Z,101048.88
2023-04-28T14:34:25.555Z,101051.06
2023-04-28T14:36:53.073Z,101055.34
2023-04-28T14:39:20.645Z,101059.94
2023-04-28T14:41:48.197Z,101056.41
2023-04-28T14:44:16.103Z,101062.44
2023-04-28T14:46:43.680Z,101064.19
2023-04-28T14:49:11.390Z,101053.97
2023-04-28T14:51:38.740Z,101059.38
2023-04-28T14:54:06.318Z,101056.69
2023-04-28T14:56:34.025Z,101046.16
2023-04-28T14:59:01.788Z,101048.03
2023-04-28T15:01:30.225Z,101048.81
2023-04-28T15:03:58.702Z,101040.38
2023-04-28T15:06:26.911Z,101046.34
2023-04-28T15:08:54.382Z,101042.50
2023-04-28T15:11:21.866Z,101046.75
2023-04-28T15:13:49.549Z,101039.59
2023-04-28T15:16:17.089Z,101038.78
2023-04-28T15:18:44.661Z,101042.66
2023-04-28T15:21:12.347Z,101041.19
2023-04-28T15:23:40.697Z,101035.31
2023-04-28T15:26:08.637Z,101037.13
2023-04-28T15:28:36.111Z,101037.16
2023-04-28T15:31:05.083Z,101032.88
2023-04-28T15:33:34.050Z,101040.84
2023-04-28T15:36:01.714Z,101041.72
2023-04-28T15:38:31.390Z,101046.16
2023-04-28T15:40:58.918Z,101045.34
2023-04-28T15:43:26.691Z,101053.03
2023-04-28T15:45:54.190Z,101056.97
2023-04-28T15:48:23.292Z,101051.81
2023-04-28T15:50:50.923Z,101055.91
2023-04-28T15:53:18.732Z,101064.44
2023-04-28T15:55:46.255Z,101064.91
2023-04-28T15:58:13.762Z,101064.38
2023-04-28T16:00:42.322Z,101056.50
2023-04-28T16:03:09.955Z,101065.81
2023-04-28T16:05:38.470Z,101064.19
2023-04-28T16:08:06.080Z,101071.47
2023-04-28T16:10:33.628Z,101077.72
2023-04-28T16:13:01.425Z,101075.38
2023-04-28T16:15:28.940Z,101076.47
2023-04-28T16:17:56.991Z,101075.91
2023-04-28T16:20:24.564Z,101076.94
2023-04-28T16:22:52.047Z,101079.75
2023-04-28T16:25:19.645Z,101075.63
2023-04-28T16:27:47.214Z,101074.03
2023-04-28T16:30:14.626Z,101079.41
2023-04-28T16:32:42.164Z,101092.97
2023-04-28T16:35:15.185Z,101081.13
2023-04-28T16:37:43.651Z,101082.06
2023-04-28T16:40:12.386Z,101080.41
2023-04-28T16:42:40.107Z,101084.84
2023-04-28T16:45:08.350Z,101081.94
2023-04-28T16:47:35.971Z,101086.47
2023-04-28T16:50:03.424Z,101093.00
2023-04-28T16:52:31.087Z,101089.88
2023-04-28T16:54:58.974Z,101092.00
2023-04-28T16:57:26.547Z,101085.16
2023-04-28T16:59:54.026Z,101094.22
2023-04-28T17:02:21.553Z,101089.91
2023-04-28T17:04:49.033Z,101096.25
2023-04-28T17:07:16.590Z,101100.63
2023-04-28T17:09:44.160Z,101113.84
2023-04-28T17:12:11.682Z,101106.78
2023-04-28T17:14:39.313Z,101119.13
2023-04-28T17:17:06.869Z,101115.72
2023-04-28T17:19:34.321Z,101116.81
2023-04-28T17:22:03.261Z,101129.28
2023-04-28T17:24:30.900Z,101128.47
2023-04-28T17:26:58.479Z,101132.84
2023-04-28T17:29:26.485Z,101136.38
2023-04-28T17:31:54.433Z,101139.19
2023-04-28T17:34:23.190Z,101145.41
2023-04-28T17:36:51.058Z,101149.84
2023-04-28T17:39:18.576Z,101151.59
2023-04-28T17:41:46.973Z,101156.97
2023-04-28T17:44:14.413Z,101160.47
2023-04-28T17:46:42.134Z,101156.13
2023-04-28T17:49:09.640Z,101165.06
2023-04-28T17:51:38.185Z,101168.69
2023-04-28T17:54:09.549Z,101181.94
2023-04-28T17:56:38.837Z,101176.00
2023-04-28T17:59:06.330Z,101175.31
2023-04-28T18:01:36.743Z,101175.31
2023-04-28T18:04:04.435Z,101170.13
2023-04-28T18:06:32.087Z,101170.97
2023-04-28T18:08:59.594Z,101170.31
2023-04-28T18:11:28.200Z,101175.72
2023-04-28T18:13:55.803Z,101184.66
2023-04-28T18:16:23.470Z,101181.22
2023-04-28T18:18:50.914Z,101183.03
2023-04-28T18:21:18.403Z,101184.81
2023-04-28T18:23:47.303Z,101184.81
2023-04-28T18:26:14.830Z,101191.97
2023-04-28T18:28:48.121Z,101194.56
2023-04-28T18:31:16.385Z,101189.38
2023-04-28T18:33:45.066Z,101189.41
2023-04-28T18:36:12.789Z,101196.50
2023-04-28T18:38:40.338Z,101190.34
2023-04-28T18:41:18.294Z,101201.06
2023-04-28T18:43:46.032Z,101202.81
2023-04-28T18:46:13.695Z,101195.88
2023-04-28T18:48:41.326Z,101198.50
2023-04-28T18:51:08.844Z,101194.13
2023-04-28T18:53:36.935Z,101195.91
2023-04-28T18:56:04.600Z,101204.72
2023-04-28T18:58:32.423Z,101209.06
2023-04-28T19:01:00.143Z,101210.00
2023-04-28T19:03:28.248Z,101210.88
2023-04-28T19:05:56.149Z,101211.69
2023-04-28T19:08:23.808Z,101212.63
2023-04-28T19:10:51.399Z,101211.75
2023-04-28T19:13:18.971Z,101214.38
2023-04-28T19:15:46.441Z,101223.16
2023-04-28T19:18:13.920Z,101225.78
2023-04-28T19:20:42.273Z,101221.34
2023-04-28T19:23:09.941Z,101234.50
2023-04-28T19:25:37.436Z,101225.75
2023-04-28T19:28:05.185Z,101228.41
2023-04-28T19:30:32.597Z,101227.53
2023-04-28T19:33:00.352Z,101229.31
2023-04-28T19:35:28.087Z,101230.22
2023-04-28T19:37:56.061Z,101239.00
2023-04-28T19:40:23.506Z,101237.22
2023-04-28T19:42:51.374Z,101246.88
2023-04-28T19:45:19.202Z,101253.88
2023-04-28T19:47:47.081Z,101246.00
2023-04-28T19:50:14.834Z,101246.91
2023-04-28T19:52:42.269Z,101245.09
2023-04-28T19:55:11.108Z,101249.47
2023-04-28T19:57:38.674Z,101247.78
2023-04-28T20:00:10.298Z,101253.03
2023-04-28T20:02:38.286Z,101268.78
2023-04-28T20:05:06.269Z,101267.91
2023-04-28T20:07:33.898Z,101267.00
2023-04-28T20:10:01.480Z,101273.19
2023-04-28T20:12:29.067Z,101279.31
2023-04-28T20:14:56.638Z,101279.31
2023-04-28T20:17:24.825Z,101290.69
2023-04-28T20:19:53.010Z,101283.69
2023-04-28T20:22:20.837Z,101291.56
2023-04-28T20:24:48.247Z,101283.66
2023-04-28T20:27:15.858Z,101293.31
2023-04-28T20:29:43.368Z,101297.69
2023-04-28T20:32:11.018Z,101295.94
2023-04-28T20:34:38.653Z,101291.56
2023-04-28T20:37:09.123Z,101296.75
2023-04-28T20:39:36.818Z,101305.59
2023-04-28T20:42:04.400Z,101316.94
2023-04-28T20:44:32.287Z,101316.03
2023-04-28T20:47:01.603Z,101315.22
2023-04-28T20:49:29.303Z,101317.84
2023-04-28T20:52:04.909Z,101316.03
2023-04-28T20:54:33.800Z,101305.53
2023-04-28T20:57:04.880Z,101310.72
2023-04-28T20:59:33.164Z,101304.59
2023-04-28T21:02:00.954Z,101307.22
2023-04-28T21:04:28.726Z,101305.47
2023-04-28T21:06:56.266Z,101310.72
2023-04-28T21:09:25.362Z,101327.28
2023-04-28T21:11:53.522Z,101324.66
2023-04-28T21:14:21.943Z,101319.41
2023-04-28T21:16:49.447Z,101320.34
2023-04-28T21:19:17.486Z,101323.78
2023-04-28T21:21:45.235Z,101315.88
2023-04-28T21:24:12.979Z,101310.66
2023-04-28T21:26:40.973Z,101317.66
2023-04-28T21:29:09.386Z,101315.88
2023-04-28T21:31:37.518Z,101323.69
2023-04-28T21:34:05.266Z,101329.81
2023-04-28T21:36:32.884Z,101322.78
2023-04-28T21:39:00.671Z,101314.91
2023-04-28T21:41:28.287Z,101317.59
2023-04-28T21:43:55.802Z,101312.31
2023-04-28T21:46:23.642Z,101318.41
2023-04-28T21:48:51.249Z,101321.94
2023-04-28T21:51:19.154Z,101324.63
2023-04-28T21:53:46.873Z,101327.28
2023-04-28T21:56:16.087Z,101331.66
2023-04-28T21:58:43.672Z,101332.50
2023-04-28T22:01:15.591Z,101325.44
2023-04-28T22:03:43.521Z,101325.44
2023-04-28T22:06:11.715Z,101334.16
2023-04-28T22:08:39.598Z,101332.34
2023-04-28T22:11:07.378Z,101319.09
2023-04-28T22:13:35.097Z,101329.59
2023-04-28T22:16:02.668Z,101332.19
2023-04-28T22:18:30.565Z,101333.91
2023-04-28T22:20:58.080Z,101331.47
2023-04-28T22:23:25.702Z,101335.81
2023-04-28T22:25:53.116Z,101341.00
2023-04-28T22:28:20.725Z,101340.06
2023-04-28T22:30:48.195Z,101348.03
2023-04-28T22:33:15.761Z,101342.66
2023-04-28T22:35:43.255Z,101344.38
2023-04-28T22:38:10.901Z,101347.03
2023-04-28T22:40:38.525Z,101352.97
2023-04-28T22:43:06.136Z,101362.53
2023-04-28T22:45:33.573Z,101356.44
2023-04-28T22:48:01.897Z,101358.22
2023-04-28T22:50:31.374Z,101358.31
2023-04-28T22:52:58.963Z,101353.13
2023-04-28T22:55:26.829Z,101347.06
2023-04-28T22:57:54.365Z,101350.63
2023-04-28T23:00:22.120Z,101347.13
2023-04-28T23:02:49.933Z,101345.31
2023-04-28T23:05:18.257Z,101346.31
2023-04-28T23:07:46.059Z,101349.88
2023-04-28T23:10:14.664Z,101351.53
2023-04-28T23:12:42.231Z,101339.19
2023-04-28T23:15:10.137Z,101341.88
2023-04-28T23:17:37.853Z,101338.41
2023-04-28T23:20:06.543Z,101330.41
2023-04-28T23:22:34.158Z,101326.16
2023-04-28T23:25:01.685Z,101334.63
2023-04-28T23:27:29.330Z,101334.59
2023-04-28T23:29:56.786Z,101338.13
2023-04-28T23:32:24.335Z,101337.25
2023-04-28T23:34:51.991Z,101343.66
2023-04-28T23:37:19.579Z,101337.41
2023-04-28T23:39:46.958Z,101334.59
2023-04-28T23:42:14.525Z,101326.78
2023-04-28T23:44:41.951Z,101339.88
2023-04-28T23:47:09.383Z,101335.47
2023-04-28T23:49:36.588Z,101337.25
2023-04-28T23:52:04.167Z,101325.03
2023-04-28T23:54:31.846Z,101328.53
2023-04-28T23:56:59.567Z,101332.16
2023-04-28T23:59:27.166Z,101324.31
